Terminal Aerodrome Forecast
Issued by NWS

Home | Current Version | Previous Version | Text Only | Print | Product List | Glossary On
Versions: 1 2 3 4 5 6 7 8 9 10 11 12 13 14 15 16 17
000
FTUS46 KSEW 191100
TAFCLM
TAF
KCLM 191120Z 1912/2012 00000KT P6SM OVC012
      TEMPO 1912/1914 5SM -SHRA BR
     FM191900 35005KT P6SM BKN025 BKN050
     FM192100 33006KT P6SM SCT035 BKN060
     FM200000 29004KT P6SM SCT060 SCT120=

USA.gov is the U.S. government's official web portal to all federal, state and local government web resources and services.